Aérodrome :
LOGIN :

S'inscrire | Disclaimer

   EN    FR    IT 

 










Légende :    VFR   VFR Marginal   IFR   IFR Intensif   IFR Très Intensif
Visi : 
Plafond : 
>= 8 km
>= 3000ft
5 à 8 km
1000 à 3000 ft
1500m à 5 km
500 à 1000 ft
800 à 1500m
200 à 500 ft
< 800m
< 200 ft
Symboles :   Orages  Brouillard  Fortes neiges  Fortes précipitations  Vent > 20 kt
SIGMETs :   Divers  Orages  Givrage  Turbulence  Onde Orograph.  Cendres Volcan.






- Altitude de l'aérodrome : 586 ft
- Code IATA : IEV


UKKK - Zhuliany

DERNIER METAR :
  • 270030Z 02003MPS 9999 SCT006 SCT033 10/10 Q1022 R08/290156 NOSIG

METARs EXPIRÉS :
  • 270000Z 02004MPS 9999 SCT007 SCT033 10/10 Q1022 R08/290156 NOSIG
  • 262330Z 01004MPS 9999 SCT007 10/10 Q1022 R08/290156 NOSIG
  • 262300Z 01004MPS 9999 SCT007 10/10 Q1023 R08/290156 NOSIG
  • 262230Z 01004MPS 9999 SCT007 10/10 Q1023 R08/290156 NOSIG
  • 262200Z 02003MPS 9999 SCT007 10/10 Q1023 R08/290156 NOSIG

TAF TAF UKKK
Valide du 27 à 00h jusqu'au 28 à 00h UTC


262301Z 2700/2724 02004G09MPS 6000 BKN007
TEMPO 2700/2706 1000 -SHRA BR BKN003 SCT012CB
PROB40
TEMPO 2700/2706 0400 FG VV001
TEMPO 2706/2720 03007G13MPS 2100 -SHRA BKN006 BKN015CB
PROB40
TEMPO 2709/2716 VRB10G17MPS 1000 TSRAGR SQ BKN003 BKN012CB



MET'MAP, la Météo Aéronautique d'un coup d'oeil ! - Copyright ORBIFLY Décembre 2007 - Disclaimer

ORBIFLY MET'MAP TEAM :

Programmation & Développement : Alexandra Zaïnal
Sur une idée originale de : Baudouin d'Aumeries
Assistance à la programmation : Marc-Olivier Méhu
Soutien technique & logistique : Manuel Goepfert

Contact : metmap@orbifly.com




SOURCES & CREDITS :

   NOAA